Broad Blunsdon, United Kingdom
Current Conditions -  °F | °C
As of 1:13 PM on Saturday 22 Nov 2014 (Local Time) from EGVA Reporting Station
Overcast Overcast  
Wind Chill: 59°   Ceiling: 4100
Heat Index: 59°   Visibility: 6mi
Dew Point: 55°   Wind: 9mph
Humidity: 88%   Direction: 220°SW
Pressure: 29.87"   Gusts: NA
Location:  51.61°N, 1.78°W
Report Text: EGVA 221313Z AUTO 22008KT 9999 BKN041 OVC075 15/13 A2987 RMK AO2
Loading
Personal Weather Stations






























Interactive Weather Map New forecast layout! Learn more

10-Day Weather Forecast

Advertisements
Track Severe Weather on mobile